sensor_id;sensor_type;location;lat;lon;timestamp;temperature;humidity
12811;DHT22;6470;47.654;7.896;2022-07-29T00:00:44;19.10;99.90
12811;DHT22;6470;47.654;7.896;2022-07-29T00:03:13;19.40;99.90
12811;DHT22;6470;47.654;7.896;2022-07-29T00:05:40;18.70;99.90
12811;DHT22;6470;47.654;7.896;2022-07-29T00:08:07;18.40;99.90
12811;DHT22;6470;47.654;7.896;2022-07-29T00:10:33;19.00;99.90
12811;DHT22;6470;47.654;7.896;2022-07-29T00:17:51;18.50;99.90
12811;DHT22;6470;47.654;7.896;2022-07-29T00:22:43;17.90;99.90
12811;DHT22;6470;47.654;7.896;2022-07-29T00:25:08;17.50;99.90
12811;DHT22;6470;47.654;7.896;2022-07-29T00:27:35;17.80;99.90
12811;DHT22;6470;47.654;7.896;2022-07-29T00:32:27;17.80;99.90
12811;DHT22;6470;47.654;7.896;2022-07-29T00:37:37;17.70;99.90
12811;DHT22;6470;47.654;7.896;2022-07-29T00:40:03;17.80;99.90
12811;DHT22;6470;47.654;7.896;2022-07-29T00:42:29;17.80;99.90
12811;DHT22;6470;47.654;7.896;2022-07-29T00:44:55;17.90;99.90
12811;DHT22;6470;47.654;7.896;2022-07-29T00:47:22;17.80;99.90
12811;DHT22;6470;47.654;7.896;2022-07-29T00:49:47;18.30;99.90
12811;DHT22;6470;47.654;7.896;2022-07-29T00:57:07;17.90;99.90
12811;DHT22;6470;47.654;7.896;2022-07-29T00:59:35;19.10;99.90
12811;DHT22;6470;47.654;7.896;2022-07-29T01:02:04;19.50;99.90
12811;DHT22;6470;47.654;7.896;2022-07-29T01:04:31;18.90;99.90
12811;DHT22;6470;47.654;7.896;2022-07-29T01:06:57;19.00;99.90
12811;DHT22;6470;47.654;7.896;2022-07-29T01:09:23;18.40;99.90
12811;DHT22;6470;47.654;7.896;2022-07-29T01:11:50;18.20;99.90
12811;DHT22;6470;47.654;7.896;2022-07-29T01:16:54;15.90;99.90
12811;DHT22;6470;47.654;7.896;2022-07-29T01:21:57;18.30;99.90
12811;DHT22;6470;47.654;7.896;2022-07-29T01:24:45;18.80;99.90
12811;DHT22;6470;47.654;7.896;2022-07-29T01:27:41;18.50;99.90
12811;DHT22;6470;47.654;7.896;2022-07-29T01:30:10;18.00;99.90
12811;DHT22;6470;47.654;7.896;2022-07-29T01:32:38;16.10;99.90
12811;DHT22;6470;47.654;7.896;2022-07-29T01:35:20;18.90;99.90
12811;DHT22;6470;47.654;7.896;2022-07-29T01:40:36;18.10;99.90
12811;DHT22;6470;47.654;7.896;2022-07-29T01:43:10;18.40;99.90
12811;DHT22;6470;47.654;7.896;2022-07-29T01:45:59;18.80;99.90
12811;DHT22;6470;47.654;7.896;2022-07-29T01:48:37;17.80;99.90
12811;DHT22;6470;47.654;7.896;2022-07-29T01:53:50;18.80;99.90
12811;DHT22;6470;47.654;7.896;2022-07-29T01:56:18;18.40;99.90
12811;DHT22;6470;47.654;7.896;2022-07-29T01:58:46;18.50;99.90
12811;DHT22;6470;47.654;7.896;2022-07-29T02:01:13;18.40;99.90
12811;DHT22;6470;47.654;7.896;2022-07-29T02:03:42;18.30;99.90
12811;DHT22;6470;47.654;7.896;2022-07-29T02:06:09;18.60;99.90
12811;DHT22;6470;47.654;7.896;2022-07-29T02:08:37;18.60;99.90
12811;DHT22;6470;47.654;7.896;2022-07-29T02:11:04;18.00;99.90
12811;DHT22;6470;47.654;7.896;2022-07-29T02:13:33;18.50;99.90
12811;DHT22;6470;47.654;7.896;2022-07-29T02:16:01;18.60;99.90
12811;DHT22;6470;47.654;7.896;2022-07-29T02:18:28;18.90;99.90
12811;DHT22;6470;47.654;7.896;2022-07-29T02:20:56;18.60;99.90
12811;DHT22;6470;47.654;7.896;2022-07-29T02:23:24;19.00;99.90
12811;DHT22;6470;47.654;7.896;2022-07-29T02:25:56;18.40;99.90
12811;DHT22;6470;47.654;7.896;2022-07-29T02:28:25;18.70;99.90
12811;DHT22;6470;47.654;7.896;2022-07-29T02:30:53;18.20;99.90
12811;DHT22;6470;47.654;7.896;2022-07-29T02:33:21;18.50;99.90
12811;DHT22;6470;47.654;7.896;2022-07-29T02:35:50;19.00;99.90
12811;DHT22;6470;47.654;7.896;2022-07-29T02:38:16;18.40;99.90
12811;DHT22;6470;47.654;7.896;2022-07-29T02:41:07;18.40;99.90
12811;DHT22;6470;47.654;7.896;2022-07-29T02:43:35;18.60;99.90
12811;DHT22;6470;47.654;7.896;2022-07-29T02:46:05;18.50;99.90
12811;DHT22;6470;47.654;7.896;2022-07-29T02:48:37;18.40;99.90
12811;DHT22;6470;47.654;7.896;2022-07-29T02:51:18;18.90;99.90
12811;DHT22;6470;47.654;7.896;2022-07-29T02:53:49;19.20;99.90
12811;DHT22;6470;47.654;7.896;2022-07-29T02:56:19;18.20;99.90
12811;DHT22;6470;47.654;7.896;2022-07-29T02:58:51;17.70;99.90
12811;DHT22;6470;47.654;7.896;2022-07-29T03:01:23;18.10;99.90
12811;DHT22;6470;47.654;7.896;2022-07-29T03:03:52;19.30;99.90
12811;DHT22;6470;47.654;7.896;2022-07-29T03:06:20;18.00;99.90
12811;DHT22;6470;47.654;7.896;2022-07-29T03:08:46;17.60;99.90
12811;DHT22;6470;47.654;7.896;2022-07-29T03:11:13;18.10;99.90
12811;DHT22;6470;47.654;7.896;2022-07-29T03:13:40;18.10;99.90
12811;DHT22;6470;47.654;7.896;2022-07-29T03:16:07;17.90;99.90
12811;DHT22;6470;47.654;7.896;2022-07-29T03:18:34;18.50;99.90
12811;DHT22;6470;47.654;7.896;2022-07-29T03:21:00;17.90;99.90
12811;DHT22;6470;47.654;7.896;2022-07-29T03:23:26;18.30;99.90
12811;DHT22;6470;47.654;7.896;2022-07-29T03:25:53;15.40;99.90
12811;DHT22;6470;47.654;7.896;2022-07-29T03:28:20;17.60;99.90
12811;DHT22;6470;47.654;7.896;2022-07-29T03:33:12;17.50;99.90
12811;DHT22;6470;47.654;7.896;2022-07-29T03:35:38;17.30;99.90
12811;DHT22;6470;47.654;7.896;2022-07-29T03:38:04;17.80;99.90
12811;DHT22;6470;47.654;7.896;2022-07-29T03:40:46;17.90;99.90
12811;DHT22;6470;47.654;7.896;2022-07-29T03:43:15;17.80;99.90
12811;DHT22;6470;47.654;7.896;2022-07-29T03:45:46;17.70;99.90
12811;DHT22;6470;47.654;7.896;2022-07-29T03:48:14;17.30;99.90
12811;DHT22;6470;47.654;7.896;2022-07-29T03:50:41;17.00;99.90
12811;DHT22;6470;47.654;7.896;2022-07-29T03:53:07;18.00;99.90
12811;DHT22;6470;47.654;7.896;2022-07-29T03:55:37;17.90;99.90
12811;DHT22;6470;47.654;7.896;2022-07-29T03:58:05;17.10;99.90
12811;DHT22;6470;47.654;7.896;2022-07-29T04:00:34;18.10;99.90
12811;DHT22;6470;47.654;7.896;2022-07-29T04:02:59;18.10;99.90
12811;DHT22;6470;47.654;7.896;2022-07-29T04:05:25;18.20;99.90
12811;DHT22;6470;47.654;7.896;2022-07-29T04:07:51;18.30;99.90
12811;DHT22;6470;47.654;7.896;2022-07-29T04:12:44;18.40;99.90
12811;DHT22;6470;47.654;7.896;2022-07-29T04:15:10;18.50;99.90
12811;DHT22;6470;47.654;7.896;2022-07-29T04:17:36;18.10;99.90
12811;DHT22;6470;47.654;7.896;2022-07-29T04:20:03;18.30;99.90
12811;DHT22;6470;47.654;7.896;2022-07-29T04:22:29;18.40;99.90
12811;DHT22;6470;47.654;7.896;2022-07-29T04:24:54;18.80;99.90
12811;DHT22;6470;47.654;7.896;2022-07-29T04:27:20;18.50;99.90
12811;DHT22;6470;47.654;7.896;2022-07-29T04:29:46;18.50;99.90
12811;DHT22;6470;47.654;7.896;2022-07-29T04:32:12;18.50;99.90
12811;DHT22;6470;47.654;7.896;2022-07-29T04:34:37;18.50;99.90
12811;DHT22;6470;47.654;7.896;2022-07-29T04:37:03;18.40;99.90
12811;DHT22;6470;47.654;7.896;2022-07-29T04:39:29;18.30;99.90
12811;DHT22;6470;47.654;7.896;2022-07-29T04:41:55;18.10;99.90
12811;DHT22;6470;47.654;7.896;2022-07-29T04:44:21;18.80;99.90
12811;DHT22;6470;47.654;7.896;2022-07-29T04:46:47;18.60;99.90
12811;DHT22;6470;47.654;7.896;2022-07-29T04:49:13;18.70;99.90
12811;DHT22;6470;47.654;7.896;2022-07-29T04:54:05;18.70;99.90
12811;DHT22;6470;47.654;7.896;2022-07-29T04:56:31;19.20;99.90
12811;DHT22;6470;47.654;7.896;2022-07-29T04:58:57;18.60;99.90
12811;DHT22;6470;47.654;7.896;2022-07-29T05:01:23;18.50;99.90
12811;DHT22;6470;47.654;7.896;2022-07-29T05:03:48;18.40;99.90
12811;DHT22;6470;47.654;7.896;2022-07-29T05:06:14;19.00;99.90
12811;DHT22;6470;47.654;7.896;2022-07-29T05:08:40;18.70;99.90
12811;DHT22;6470;47.654;7.896;2022-07-29T05:11:05;19.00;99.90
12811;DHT22;6470;47.654;7.896;2022-07-29T05:15:57;18.70;99.90
12811;DHT22;6470;47.654;7.896;2022-07-29T05:18:26;18.80;99.90
12811;DHT22;6470;47.654;7.896;2022-07-29T05:20:51;19.10;99.90
12811;DHT22;6470;47.654;7.896;2022-07-29T05:23:17;18.50;99.90
12811;DHT22;6470;47.654;7.896;2022-07-29T05:25:43;19.10;99.90
12811;DHT22;6470;47.654;7.896;2022-07-29T05:28:09;19.10;99.90
12811;DHT22;6470;47.654;7.896;2022-07-29T05:30:34;18.70;99.90
12811;DHT22;6470;47.654;7.896;2022-07-29T05:33:00;19.00;99.90
12811;DHT22;6470;47.654;7.896;2022-07-29T05:35:26;18.90;99.90
12811;DHT22;6470;47.654;7.896;2022-07-29T05:37:51;19.20;99.90
12811;DHT22;6470;47.654;7.896;2022-07-29T05:40:17;19.40;99.90
12811;DHT22;6470;47.654;7.896;2022-07-29T05:42:43;19.90;99.90
12811;DHT22;6470;47.654;7.896;2022-07-29T05:45:09;19.80;99.90
12811;DHT22;6470;47.654;7.896;2022-07-29T05:47:35;20.90;99.90
12811;DHT22;6470;47.654;7.896;2022-07-29T05:52:27;20.70;99.90
12811;DHT22;6470;47.654;7.896;2022-07-29T05:57:22;20.30;99.90
12811;DHT22;6470;47.654;7.896;2022-07-29T05:59:49;20.80;99.90
12811;DHT22;6470;47.654;7.896;2022-07-29T06:02:15;20.30;99.90
12811;DHT22;6470;47.654;7.896;2022-07-29T06:04:41;20.40;99.90
12811;DHT22;6470;47.654;7.896;2022-07-29T06:07:07;20.00;99.90
12811;DHT22;6470;47.654;7.896;2022-07-29T06:09:34;20.60;99.90
12811;DHT22;6470;47.654;7.896;2022-07-29T06:12:00;21.50;99.90
12811;DHT22;6470;47.654;7.896;2022-07-29T06:14:26;17.80;99.90
12811;DHT22;6470;47.654;7.896;2022-07-29T06:16:55;20.70;99.90
12811;DHT22;6470;47.654;7.896;2022-07-29T06:19:21;20.50;99.90
12811;DHT22;6470;47.654;7.896;2022-07-29T06:21:46;20.90;99.90
12811;DHT22;6470;47.654;7.896;2022-07-29T06:24:14;21.40;99.90
12811;DHT22;6470;47.654;7.896;2022-07-29T06:26:40;20.70;99.90
12811;DHT22;6470;47.654;7.896;2022-07-29T06:29:07;20.90;99.90
12811;DHT22;6470;47.654;7.896;2022-07-29T06:31:33;21.20;99.90
12811;DHT22;6470;47.654;7.896;2022-07-29T06:33:59;21.00;99.90
12811;DHT22;6470;47.654;7.896;2022-07-29T06:36:24;21.20;99.90
12811;DHT22;6470;47.654;7.896;2022-07-29T06:38:50;20.90;99.90
12811;DHT22;6470;47.654;7.896;2022-07-29T06:41:16;20.30;99.90
12811;DHT22;6470;47.654;7.896;2022-07-29T06:43:44;21.70;99.90
12811;DHT22;6470;47.654;7.896;2022-07-29T06:46:12;21.50;99.90
12811;DHT22;6470;47.654;7.896;2022-07-29T06:48:39;22.30;99.90
12811;DHT22;6470;47.654;7.896;2022-07-29T06:51:06;21.80;99.90
12811;DHT22;6470;47.654;7.896;2022-07-29T06:53:33;21.70;99.90
12811;DHT22;6470;47.654;7.896;2022-07-29T06:55:59;22.40;99.90
12811;DHT22;6470;47.654;7.896;2022-07-29T06:58:26;21.90;99.90
12811;DHT22;6470;47.654;7.896;2022-07-29T07:00:52;22.20;99.90
12811;DHT22;6470;47.654;7.896;2022-07-29T07:03:18;21.80;99.90
12811;DHT22;6470;47.654;7.896;2022-07-29T07:05:44;22.30;99.90
12811;DHT22;6470;47.654;7.896;2022-07-29T07:08:11;21.40;99.90
12811;DHT22;6470;47.654;7.896;2022-07-29T07:13:04;21.10;99.90
12811;DHT22;6470;47.654;7.896;2022-07-29T07:17:57;18.40;99.90
12811;DHT22;6470;47.654;7.896;2022-07-29T07:20:23;18.50;99.90
12811;DHT22;6470;47.654;7.896;2022-07-29T07:22:49;21.10;99.90
12811;DHT22;6470;47.654;7.896;2022-07-29T07:25:15;21.60;99.90
12811;DHT22;6470;47.654;7.896;2022-07-29T07:30:08;22.10;99.90
12811;DHT22;6470;47.654;7.896;2022-07-29T07:32:35;21.20;99.90
12811;DHT22;6470;47.654;7.896;2022-07-29T07:35:01;21.10;99.90
12811;DHT22;6470;47.654;7.896;2022-07-29T07:37:26;21.10;99.90
12811;DHT22;6470;47.654;7.896;2022-07-29T07:39:53;21.30;99.90
12811;DHT22;6470;47.654;7.896;2022-07-29T07:42:19;21.40;99.90
12811;DHT22;6470;47.654;7.896;2022-07-29T07:47:12;21.60;99.90
12811;DHT22;6470;47.654;7.896;2022-07-29T07:49:38;21.80;99.90
12811;DHT22;6470;47.654;7.896;2022-07-29T07:52:04;21.70;99.90
12811;DHT22;6470;47.654;7.896;2022-07-29T07:54:30;21.80;99.90
12811;DHT22;6470;47.654;7.896;2022-07-29T07:56:56;21.80;99.90
12811;DHT22;6470;47.654;7.896;2022-07-29T07:59:22;21.70;99.90
12811;DHT22;6470;47.654;7.896;2022-07-29T08:01:48;22.00;99.90
12811;DHT22;6470;47.654;7.896;2022-07-29T08:04:14;22.10;99.90
12811;DHT22;6470;47.654;7.896;2022-07-29T08:06:39;22.00;99.90
12811;DHT22;6470;47.654;7.896;2022-07-29T08:09:05;22.50;99.90
12811;DHT22;6470;47.654;7.896;2022-07-29T08:13:58;22.00;99.90
12811;DHT22;6470;47.654;7.896;2022-07-29T08:16:23;21.80;99.90
12811;DHT22;6470;47.654;7.896;2022-07-29T08:18:51;22.00;99.90
12811;DHT22;6470;47.654;7.896;2022-07-29T08:21:17;21.90;99.90
12811;DHT22;6470;47.654;7.896;2022-07-29T08:23:44;22.10;99.90
12811;DHT22;6470;47.654;7.896;2022-07-29T08:26:19;21.90;99.90
12811;DHT22;6470;47.654;7.896;2022-07-29T08:28:46;22.00;99.90
12811;DHT22;6470;47.654;7.896;2022-07-29T08:31:15;22.20;99.90
12811;DHT22;6470;47.654;7.896;2022-07-29T08:33:42;22.40;99.90
12811;DHT22;6470;47.654;7.896;2022-07-29T08:38:34;22.80;99.90
12811;DHT22;6470;47.654;7.896;2022-07-29T08:41:01;23.70;99.90
12811;DHT22;6470;47.654;7.896;2022-07-29T08:43:28;23.40;99.90
12811;DHT22;6470;47.654;7.896;2022-07-29T08:45:54;22.90;99.90
12811;DHT22;6470;47.654;7.896;2022-07-29T08:48:24;23.60;99.90
12811;DHT22;6470;47.654;7.896;2022-07-29T08:50:52;23.00;99.90
12811;DHT22;6470;47.654;7.896;2022-07-29T08:53:21;23.10;99.90
12811;DHT22;6470;47.654;7.896;2022-07-29T08:55:50;23.20;99.90
12811;DHT22;6470;47.654;7.896;2022-07-29T08:58:16;24.00;99.90
12811;DHT22;6470;47.654;7.896;2022-07-29T09:00:51;23.20;99.90
12811;DHT22;6470;47.654;7.896;2022-07-29T09:03:20;23.10;99.90
12811;DHT22;6470;47.654;7.896;2022-07-29T09:05:46;23.30;99.90
12811;DHT22;6470;47.654;7.896;2022-07-29T09:08:14;23.50;99.90
12811;DHT22;6470;47.654;7.896;2022-07-29T09:10:40;23.60;99.90
12811;DHT22;6470;47.654;7.896;2022-07-29T09:15:32;24.00;99.90
12811;DHT22;6470;47.654;7.896;2022-07-29T09:20:26;23.80;99.90
12811;DHT22;6470;47.654;7.896;2022-07-29T09:23:12;23.70;99.90
12811;DHT22;6470;47.654;7.896;2022-07-29T09:25:40;24.20;99.90
12811;DHT22;6470;47.654;7.896;2022-07-29T09:28:11;24.20;99.90
12811;DHT22;6470;47.654;7.896;2022-07-29T09:30:57;24.40;99.90
12811;DHT22;6470;47.654;7.896;2022-07-29T09:33:34;24.40;99.90
12811;DHT22;6470;47.654;7.896;2022-07-29T09:36:07;24.40;99.90
12811;DHT22;6470;47.654;7.896;2022-07-29T09:38:36;24.70;99.90
12811;DHT22;6470;47.654;7.896;2022-07-29T09:41:05;24.80;99.90
12811;DHT22;6470;47.654;7.896;2022-07-29T09:46:13;25.70;99.90
12811;DHT22;6470;47.654;7.896;2022-07-29T09:48:39;25.10;99.90
12811;DHT22;6470;47.654;7.896;2022-07-29T09:51:05;25.40;99.90
12811;DHT22;6470;47.654;7.896;2022-07-29T09:53:36;25.70;99.90
12811;DHT22;6470;47.654;7.896;2022-07-29T09:56:03;25.70;99.90
12811;DHT22;6470;47.654;7.896;2022-07-29T09:58:29;25.50;99.90
12811;DHT22;6470;47.654;7.896;2022-07-29T10:00:55;25.60;99.90
12811;DHT22;6470;47.654;7.896;2022-07-29T10:03:22;23.30;99.90
12811;DHT22;6470;47.654;7.896;2022-07-29T10:06:07;26.50;99.90
12811;DHT22;6470;47.654;7.896;2022-07-29T10:08:34;26.00;99.90
12811;DHT22;6470;47.654;7.896;2022-07-29T10:11:32;26.30;99.90
12811;DHT22;6470;47.654;7.896;2022-07-29T10:13:58;26.00;99.90
12811;DHT22;6470;47.654;7.896;2022-07-29T10:16:24;26.30;99.90
12811;DHT22;6470;47.654;7.896;2022-07-29T10:18:52;26.20;99.90
12811;DHT22;6470;47.654;7.896;2022-07-29T10:21:18;26.40;99.90
12811;DHT22;6470;47.654;7.896;2022-07-29T10:23:43;27.60;99.90
12811;DHT22;6470;47.654;7.896;2022-07-29T10:26:10;27.20;99.90
12811;DHT22;6470;47.654;7.896;2022-07-29T10:28:36;28.30;99.90
12811;DHT22;6470;47.654;7.896;2022-07-29T10:31:07;28.00;99.90
12811;DHT22;6470;47.654;7.896;2022-07-29T10:34:04;28.30;99.90
12811;DHT22;6470;47.654;7.896;2022-07-29T10:44:18;28.30;99.90
12811;DHT22;6470;47.654;7.896;2022-07-29T10:46:45;27.20;99.90
12811;DHT22;6470;47.654;7.896;2022-07-29T10:49:19;27.10;99.90
12811;DHT22;6470;47.654;7.896;2022-07-29T10:52:06;27.60;99.90
12811;DHT22;6470;47.654;7.896;2022-07-29T10:59:46;27.10;99.90
12811;DHT22;6470;47.654;7.896;2022-07-29T11:07:22;27.30;99.90
12811;DHT22;6470;47.654;7.896;2022-07-29T11:15:13;27.40;99.90
12811;DHT22;6470;47.654;7.896;2022-07-29T11:20:50;27.50;99.90
12811;DHT22;6470;47.654;7.896;2022-07-29T11:23:31;26.60;99.90
12811;DHT22;6470;47.654;7.896;2022-07-29T11:29:03;26.90;99.90
12811;DHT22;6470;47.654;7.896;2022-07-29T11:34:25;27.00;99.90
12811;DHT22;6470;47.654;7.896;2022-07-29T11:37:20;26.70;99.90
12811;DHT22;6470;47.654;7.896;2022-07-29T11:47:37;26.80;99.90
12811;DHT22;6470;47.654;7.896;2022-07-29T11:50:05;26.60;99.90
12811;DHT22;6470;47.654;7.896;2022-07-29T11:52:43;26.30;99.90
12811;DHT22;6470;47.654;7.896;2022-07-29T11:55:15;26.30;99.90
12811;DHT22;6470;47.654;7.896;2022-07-29T11:57:55;26.50;99.90
12811;DHT22;6470;47.654;7.896;2022-07-29T12:00:36;26.50;99.90
12811;DHT22;6470;47.654;7.896;2022-07-29T12:03:05;26.00;99.90
12811;DHT22;6470;47.654;7.896;2022-07-29T12:05:42;26.40;99.90
12811;DHT22;6470;47.654;7.896;2022-07-29T12:10:36;26.50;99.90
12811;DHT22;6470;47.654;7.896;2022-07-29T12:13:02;26.10;99.90
12811;DHT22;6470;47.654;7.896;2022-07-29T12:15:28;25.50;99.90
12811;DHT22;6470;47.654;7.896;2022-07-29T12:17:54;26.10;99.90
12811;DHT22;6470;47.654;7.896;2022-07-29T12:20:28;25.30;99.90
12811;DHT22;6470;47.654;7.896;2022-07-29T12:22:55;26.20;99.90
12811;DHT22;6470;47.654;7.896;2022-07-29T12:25:23;25.00;99.90
12811;DHT22;6470;47.654;7.896;2022-07-29T12:28:04;25.20;99.90
12811;DHT22;6470;47.654;7.896;2022-07-29T12:30:44;25.50;99.90
12811;DHT22;6470;47.654;7.896;2022-07-29T12:33:23;24.80;99.90
12811;DHT22;6470;47.654;7.896;2022-07-29T12:35:56;24.50;99.90
12811;DHT22;6470;47.654;7.896;2022-07-29T12:38:22;24.90;99.90
12811;DHT22;6470;47.654;7.896;2022-07-29T12:40:49;24.90;99.90
12811;DHT22;6470;47.654;7.896;2022-07-29T12:43:17;24.10;99.90
12811;DHT22;6470;47.654;7.896;2022-07-29T12:45:46;25.10;99.90
12811;DHT22;6470;47.654;7.896;2022-07-29T12:48:12;24.10;99.90
12811;DHT22;6470;47.654;7.896;2022-07-29T12:50:58;24.90;99.90
12811;DHT22;6470;47.654;7.896;2022-07-29T12:53:25;24.10;99.90
12811;DHT22;6470;47.654;7.896;2022-07-29T12:55:53;24.80;99.90
12811;DHT22;6470;47.654;7.896;2022-07-29T12:58:45;23.70;99.90
12811;DHT22;6470;47.654;7.896;2022-07-29T13:01:14;24.80;99.90
12811;DHT22;6470;47.654;7.896;2022-07-29T13:06:36;24.80;99.90
12811;DHT22;6470;47.654;7.896;2022-07-29T13:09:10;24.50;99.90
12811;DHT22;6470;47.654;7.896;2022-07-29T13:11:43;24.00;99.90
12811;DHT22;6470;47.654;7.896;2022-07-29T13:14:13;21.40;99.90
12811;DHT22;6470;47.654;7.896;2022-07-29T13:19:45;24.20;99.90
12811;DHT22;6470;47.654;7.896;2022-07-29T13:22:31;24.50;99.90
12811;DHT22;6470;47.654;7.896;2022-07-29T13:24:58;25.00;99.90
12811;DHT22;6470;47.654;7.896;2022-07-29T13:27:30;24.50;99.90
12811;DHT22;6470;47.654;7.896;2022-07-29T13:29:59;24.70;99.90
12811;DHT22;6470;47.654;7.896;2022-07-29T13:32:27;23.80;99.90
12811;DHT22;6470;47.654;7.896;2022-07-29T13:34:53;24.30;99.90
12811;DHT22;6470;47.654;7.896;2022-07-29T13:37:19;24.60;99.90
12811;DHT22;6470;47.654;7.896;2022-07-29T13:39:45;24.80;99.90
12811;DHT22;6470;47.654;7.896;2022-07-29T13:42:11;24.30;99.90
12811;DHT22;6470;47.654;7.896;2022-07-29T13:44:40;25.60;99.90
12811;DHT22;6470;47.654;7.896;2022-07-29T13:47:06;24.30;99.90
12811;DHT22;6470;47.654;7.896;2022-07-29T13:49:33;25.20;99.90
12811;DHT22;6470;47.654;7.896;2022-07-29T13:51:58;24.70;99.90
12811;DHT22;6470;47.654;7.896;2022-07-29T13:54:24;25.10;99.90
12811;DHT22;6470;47.654;7.896;2022-07-29T13:56:50;25.20;99.90
12811;DHT22;6470;47.654;7.896;2022-07-29T13:59:16;25.10;99.90
12811;DHT22;6470;47.654;7.896;2022-07-29T14:01:42;24.90;99.90
12811;DHT22;6470;47.654;7.896;2022-07-29T14:04:09;24.40;99.90
12811;DHT22;6470;47.654;7.896;2022-07-29T14:06:35;25.80;99.90
12811;DHT22;6470;47.654;7.896;2022-07-29T14:09:02;24.90;99.90
12811;DHT22;6470;47.654;7.896;2022-07-29T14:11:27;25.50;99.90
12811;DHT22;6470;47.654;7.896;2022-07-29T14:13:53;25.70;99.90
12811;DHT22;6470;47.654;7.896;2022-07-29T14:16:19;25.50;99.90
12811;DHT22;6470;47.654;7.896;2022-07-29T14:18:44;25.30;99.90
12811;DHT22;6470;47.654;7.896;2022-07-29T14:21:10;25.30;99.90
12811;DHT22;6470;47.654;7.896;2022-07-29T14:23:36;24.40;99.90
12811;DHT22;6470;47.654;7.896;2022-07-29T14:28:28;25.20;99.90
12811;DHT22;6470;47.654;7.896;2022-07-29T14:30:54;26.20;99.90
12811;DHT22;6470;47.654;7.896;2022-07-29T14:33:20;25.20;99.90
12811;DHT22;6470;47.654;7.896;2022-07-29T14:35:46;25.30;99.90
12811;DHT22;6470;47.654;7.896;2022-07-29T14:40:38;25.00;99.90
12811;DHT22;6470;47.654;7.896;2022-07-29T14:43:04;24.90;99.90
12811;DHT22;6470;47.654;7.896;2022-07-29T14:47:56;25.20;99.90
12811;DHT22;6470;47.654;7.896;2022-07-29T14:50:22;24.60;99.90
12811;DHT22;6470;47.654;7.896;2022-07-29T14:52:48;24.80;99.90
12811;DHT22;6470;47.654;7.896;2022-07-29T14:55:15;25.00;99.90
12811;DHT22;6470;47.654;7.896;2022-07-29T14:57:40;24.90;99.90
12811;DHT22;6470;47.654;7.896;2022-07-29T15:00:07;24.90;99.90
12811;DHT22;6470;47.654;7.896;2022-07-29T15:02:33;25.40;99.90
12811;DHT22;6470;47.654;7.896;2022-07-29T15:04:59;25.30;99.90
12811;DHT22;6470;47.654;7.896;2022-07-29T15:07:25;24.20;99.90
12811;DHT22;6470;47.654;7.896;2022-07-29T15:09:51;24.50;99.90
12811;DHT22;6470;47.654;7.896;2022-07-29T15:12:16;24.50;99.90
12811;DHT22;6470;47.654;7.896;2022-07-29T15:14:42;24.50;99.90
12811;DHT22;6470;47.654;7.896;2022-07-29T15:17:08;24.50;99.90
12811;DHT22;6470;47.654;7.896;2022-07-29T15:19:34;24.30;99.90
12811;DHT22;6470;47.654;7.896;2022-07-29T15:24:26;24.30;99.90
12811;DHT22;6470;47.654;7.896;2022-07-29T15:26:52;24.90;99.90
12811;DHT22;6470;47.654;7.896;2022-07-29T15:29:17;24.50;99.90
12811;DHT22;6470;47.654;7.896;2022-07-29T15:31:43;23.90;99.90
12811;DHT22;6470;47.654;7.896;2022-07-29T15:36:35;24.90;99.90
12811;DHT22;6470;47.654;7.896;2022-07-29T15:41:27;24.50;99.90
12811;DHT22;6470;47.654;7.896;2022-07-29T15:43:53;25.20;99.90
12811;DHT22;6470;47.654;7.896;2022-07-29T15:46:19;24.50;99.90
12811;DHT22;6470;47.654;7.896;2022-07-29T15:49:05;25.10;99.90
12811;DHT22;6470;47.654;7.896;2022-07-29T15:51:31;25.00;99.90
12811;DHT22;6470;47.654;7.896;2022-07-29T15:53:57;25.10;99.90
12811;DHT22;6470;47.654;7.896;2022-07-29T15:56:23;25.10;99.90
12811;DHT22;6470;47.654;7.896;2022-07-29T15:58:50;24.20;99.90
12811;DHT22;6470;47.654;7.896;2022-07-29T16:01:16;24.80;99.90
12811;DHT22;6470;47.654;7.896;2022-07-29T16:03:41;24.80;99.90
12811;DHT22;6470;47.654;7.896;2022-07-29T16:06:08;26.10;99.90
12811;DHT22;6470;47.654;7.896;2022-07-29T16:08:34;25.00;99.90
12811;DHT22;6470;47.654;7.896;2022-07-29T16:10:59;25.90;99.90
12811;DHT22;6470;47.654;7.896;2022-07-29T16:13:25;25.30;99.90
12811;DHT22;6470;47.654;7.896;2022-07-29T16:15:51;24.50;99.90
12811;DHT22;6470;47.654;7.896;2022-07-29T16:18:16;25.30;99.90
12811;DHT22;6470;47.654;7.896;2022-07-29T16:20:42;25.40;99.90
12811;DHT22;6470;47.654;7.896;2022-07-29T16:23:08;25.40;99.90
12811;DHT22;6470;47.654;7.896;2022-07-29T16:25:37;25.20;99.90
12811;DHT22;6470;47.654;7.896;2022-07-29T16:28:04;25.50;99.90
12811;DHT22;6470;47.654;7.896;2022-07-29T16:30:30;26.10;99.90
12811;DHT22;6470;47.654;7.896;2022-07-29T16:32:56;25.90;99.90
12811;DHT22;6470;47.654;7.896;2022-07-29T16:35:21;25.60;99.90
12811;DHT22;6470;47.654;7.896;2022-07-29T16:37:47;25.90;99.90
12811;DHT22;6470;47.654;7.896;2022-07-29T16:40:13;26.10;99.90
12811;DHT22;6470;47.654;7.896;2022-07-29T16:42:39;26.90;99.90
12811;DHT22;6470;47.654;7.896;2022-07-29T16:45:05;26.60;99.90
12811;DHT22;6470;47.654;7.896;2022-07-29T16:47:31;27.30;99.90
12811;DHT22;6470;47.654;7.896;2022-07-29T16:49:57;26.80;99.90
12811;DHT22;6470;47.654;7.896;2022-07-29T16:52:22;27.50;99.90
12811;DHT22;6470;47.654;7.896;2022-07-29T16:54:49;26.60;99.90
12811;DHT22;6470;47.654;7.896;2022-07-29T16:57:15;26.40;99.90
12811;DHT22;6470;47.654;7.896;2022-07-29T16:59:41;26.20;99.90
12811;DHT22;6470;47.654;7.896;2022-07-29T17:02:06;26.00;99.90
12811;DHT22;6470;47.654;7.896;2022-07-29T17:04:32;26.70;99.90
12811;DHT22;6470;47.654;7.896;2022-07-29T17:06:58;27.50;99.90
12811;DHT22;6470;47.654;7.896;2022-07-29T17:09:24;25.90;99.90
12811;DHT22;6470;47.654;7.896;2022-07-29T17:11:50;24.10;99.90
12811;DHT22;6470;47.654;7.896;2022-07-29T17:14:22;27.00;99.90
12811;DHT22;6470;47.654;7.896;2022-07-29T17:16:50;26.80;99.90
12811;DHT22;6470;47.654;7.896;2022-07-29T17:19:16;26.60;99.90
12811;DHT22;6470;47.654;7.896;2022-07-29T17:21:41;27.30;99.90
12811;DHT22;6470;47.654;7.896;2022-07-29T17:24:07;26.70;99.90
12811;DHT22;6470;47.654;7.896;2022-07-29T17:26:33;26.60;99.90
12811;DHT22;6470;47.654;7.896;2022-07-29T17:28:59;26.40;99.90
12811;DHT22;6470;47.654;7.896;2022-07-29T17:31:25;26.20;99.90
12811;DHT22;6470;47.654;7.896;2022-07-29T17:33:50;25.80;99.90
12811;DHT22;6470;47.654;7.896;2022-07-29T17:36:16;26.40;99.90
12811;DHT22;6470;47.654;7.896;2022-07-29T17:38:48;26.40;99.90
12811;DHT22;6470;47.654;7.896;2022-07-29T17:41:14;26.10;99.90
12811;DHT22;6470;47.654;7.896;2022-07-29T17:43:39;25.80;99.90
12811;DHT22;6470;47.654;7.896;2022-07-29T17:46:06;25.50;99.90
12811;DHT22;6470;47.654;7.896;2022-07-29T17:48:34;25.90;99.90
12811;DHT22;6470;47.654;7.896;2022-07-29T17:51:00;26.00;99.90
12811;DHT22;6470;47.654;7.896;2022-07-29T17:53:26;26.70;99.90
12811;DHT22;6470;47.654;7.896;2022-07-29T17:55:51;25.70;99.90
12811;DHT22;6470;47.654;7.896;2022-07-29T18:00:43;25.20;99.90